Ocean City, Maryland
Current Conditions -  °F | °C
As of 10:53 PM on Tuesday 21 Oct 2014 (Local Time) from KOXB Reporting Station
Light Rain Light Rain  
Wind Chill: 14°   Ceiling: 7500
Heat Index: 14°   Visibility: 10mi
Dew Point: 12°   Wind: 12mph
Humidity: 84%   Direction: 280°W
Pressure: 29.86"   Gusts: 18mph
Location:  38.34°N, 75.08°W
Report Text: KOXB 220253Z AUTO 28010G16KT 10SM -RA BKN075 OVC090 14/12 A2986 RMK AO2 RAB53 SLP110 P0000 60000 T01440117 53010 TSNO
Loading
Personal Weather Stations






























Interactive Weather Map
Tropical Storm Tracking
New forecast layout! Learn more

10-Day Weather Forecast

Advertisements
Track Severe Weather on mobile